sensor_id;sensor_type;location;lat;lon;timestamp;P1;durP1;ratioP1;P2;durP2;ratioP2
3971;SDS011;2000;47.572;14.202;2023-06-22T00:01:00;15.20;;;6.33;;
3971;SDS011;2000;47.572;14.202;2023-06-22T00:03:27;11.57;;;6.93;;
3971;SDS011;2000;47.572;14.202;2023-06-22T00:05:54;11.20;;;5.50;;
3971;SDS011;2000;47.572;14.202;2023-06-22T00:08:21;8.70;;;4.87;;
3971;SDS011;2000;47.572;14.202;2023-06-22T00:10:48;9.27;;;6.00;;
3971;SDS011;2000;47.572;14.202;2023-06-22T00:13:15;9.43;;;4.53;;
3971;SDS011;2000;47.572;14.202;2023-06-22T00:15:43;18.53;;;5.97;;
3971;SDS011;2000;47.572;14.202;2023-06-22T00:18:10;9.77;;;5.30;;
3971;SDS011;2000;47.572;14.202;2023-06-22T00:20:39;8.20;;;5.20;;
3971;SDS011;2000;47.572;14.202;2023-06-22T00:23:06;14.10;;;6.53;;
3971;SDS011;2000;47.572;14.202;2023-06-22T00:25:39;19.87;;;6.40;;
3971;SDS011;2000;47.572;14.202;2023-06-22T00:28:09;9.00;;;6.10;;
3971;SDS011;2000;47.572;14.202;2023-06-22T00:30:36;16.20;;;6.27;;
3971;SDS011;2000;47.572;14.202;2023-06-22T00:33:02;12.10;;;6.00;;
3971;SDS011;2000;47.572;14.202;2023-06-22T00:35:29;13.93;;;6.67;;
3971;SDS011;2000;47.572;14.202;2023-06-22T00:37:57;16.30;;;7.70;;
3971;SDS011;2000;47.572;14.202;2023-06-22T00:40:31;15.00;;;8.07;;
3971;SDS011;2000;47.572;14.202;2023-06-22T00:42:58;26.93;;;8.00;;
3971;SDS011;2000;47.572;14.202;2023-06-22T00:45:26;25.20;;;9.17;;
3971;SDS011;2000;47.572;14.202;2023-06-22T00:47:55;21.17;;;8.50;;
3971;SDS011;2000;47.572;14.202;2023-06-22T00:50:24;11.27;;;8.03;;
3971;SDS011;2000;47.572;14.202;2023-06-22T00:52:57;21.67;;;11.93;;
3971;SDS011;2000;47.572;14.202;2023-06-22T00:55:26;34.80;;;15.63;;
3971;SDS011;2000;47.572;14.202;2023-06-22T00:57:54;35.10;;;16.67;;
3971;SDS011;2000;47.572;14.202;2023-06-22T01:00:24;20.03;;;13.30;;
3971;SDS011;2000;47.572;14.202;2023-06-22T01:02:52;28.13;;;15.00;;
3971;SDS011;2000;47.572;14.202;2023-06-22T01:05:20;29.93;;;14.23;;
3971;SDS011;2000;47.572;14.202;2023-06-22T01:10:31;22.53;;;11.20;;
3971;SDS011;2000;47.572;14.202;2023-06-22T01:13:02;17.43;;;8.80;;
3971;SDS011;2000;47.572;14.202;2023-06-22T01:15:32;22.23;;;8.73;;
3971;SDS011;2000;47.572;14.202;2023-06-22T01:18:03;15.83;;;9.00;;
3971;SDS011;2000;47.572;14.202;2023-06-22T01:20:32;24.37;;;10.43;;
3971;SDS011;2000;47.572;14.202;2023-06-22T01:23:20;25.73;;;13.47;;
3971;SDS011;2000;47.572;14.202;2023-06-22T01:26:06;30.37;;;14.80;;
3971;SDS011;2000;47.572;14.202;2023-06-22T01:28:48;25.40;;;14.83;;
3971;SDS011;2000;47.572;14.202;2023-06-22T01:31:17;26.50;;;14.00;;
3971;SDS011;2000;47.572;14.202;2023-06-22T01:33:46;23.07;;;12.63;;
3971;SDS011;2000;47.572;14.202;2023-06-22T01:36:16;26.53;;;11.83;;
3971;SDS011;2000;47.572;14.202;2023-06-22T01:38:43;20.60;;;11.30;;
3971;SDS011;2000;47.572;14.202;2023-06-22T01:41:11;22.23;;;10.80;;
3971;SDS011;2000;47.572;14.202;2023-06-22T01:43:37;19.07;;;11.10;;
3971;SDS011;2000;47.572;14.202;2023-06-22T01:46:05;18.53;;;10.70;;
3971;SDS011;2000;47.572;14.202;2023-06-22T01:48:32;26.13;;;11.27;;
3971;SDS011;2000;47.572;14.202;2023-06-22T01:50:59;27.20;;;11.90;;
3971;SDS011;2000;47.572;14.202;2023-06-22T01:53:26;29.13;;;12.60;;
3971;SDS011;2000;47.572;14.202;2023-06-22T01:55:53;28.63;;;11.73;;
3971;SDS011;2000;47.572;14.202;2023-06-22T01:58:20;32.20;;;13.03;;
3971;SDS011;2000;47.572;14.202;2023-06-22T02:00:53;23.00;;;11.93;;
3971;SDS011;2000;47.572;14.202;2023-06-22T02:03:34;26.37;;;12.40;;
3971;SDS011;2000;47.572;14.202;2023-06-22T02:06:08;21.27;;;11.70;;
3971;SDS011;2000;47.572;14.202;2023-06-22T02:08:49;19.03;;;11.60;;
3971;SDS011;2000;47.572;14.202;2023-06-22T02:11:18;28.70;;;13.30;;
3971;SDS011;2000;47.572;14.202;2023-06-22T02:13:46;28.77;;;12.43;;
3971;SDS011;2000;47.572;14.202;2023-06-22T02:16:13;34.67;;;14.73;;
3971;SDS011;2000;47.572;14.202;2023-06-22T02:18:47;31.10;;;13.90;;
3971;SDS011;2000;47.572;14.202;2023-06-22T02:21:19;22.67;;;14.60;;
3971;SDS011;2000;47.572;14.202;2023-06-22T02:23:46;26.47;;;13.17;;
3971;SDS011;2000;47.572;14.202;2023-06-22T02:26:13;31.57;;;14.17;;
3971;SDS011;2000;47.572;14.202;2023-06-22T02:28:42;23.43;;;12.50;;
3971;SDS011;2000;47.572;14.202;2023-06-22T02:31:09;14.93;;;10.90;;
3971;SDS011;2000;47.572;14.202;2023-06-22T02:33:36;18.37;;;11.10;;
3971;SDS011;2000;47.572;14.202;2023-06-22T02:36:03;20.70;;;10.97;;
3971;SDS011;2000;47.572;14.202;2023-06-22T02:38:31;23.50;;;12.37;;
3971;SDS011;2000;47.572;14.202;2023-06-22T02:41:02;18.57;;;9.90;;
3971;SDS011;2000;47.572;14.202;2023-06-22T02:43:29;16.40;;;10.83;;
3971;SDS011;2000;47.572;14.202;2023-06-22T02:45:56;16.87;;;10.70;;
3971;SDS011;2000;47.572;14.202;2023-06-22T02:48:23;24.23;;;11.03;;
3971;SDS011;2000;47.572;14.202;2023-06-22T02:50:51;15.10;;;10.20;;
3971;SDS011;2000;47.572;14.202;2023-06-22T02:53:18;19.83;;;10.53;;
3971;SDS011;2000;47.572;14.202;2023-06-22T02:55:44;22.60;;;10.67;;
3971;SDS011;2000;47.572;14.202;2023-06-22T02:58:11;19.53;;;11.17;;
3971;SDS011;2000;47.572;14.202;2023-06-22T03:00:38;18.23;;;11.40;;
3971;SDS011;2000;47.572;14.202;2023-06-22T03:03:05;36.03;;;12.97;;
3971;SDS011;2000;47.572;14.202;2023-06-22T03:05:32;18.03;;;11.03;;
3971;SDS011;2000;47.572;14.202;2023-06-22T03:08:01;28.43;;;10.77;;
3971;SDS011;2000;47.572;14.202;2023-06-22T03:10:28;23.57;;;10.50;;
3971;SDS011;2000;47.572;14.202;2023-06-22T03:12:55;18.63;;;9.53;;
3971;SDS011;2000;47.572;14.202;2023-06-22T03:15:22;19.80;;;11.13;;
3971;SDS011;2000;47.572;14.202;2023-06-22T03:17:49;18.97;;;9.33;;
3971;SDS011;2000;47.572;14.202;2023-06-22T03:20:16;25.73;;;10.27;;
3971;SDS011;2000;47.572;14.202;2023-06-22T03:22:42;26.07;;;9.97;;
3971;SDS011;2000;47.572;14.202;2023-06-22T03:25:10;15.47;;;10.63;;
3971;SDS011;2000;47.572;14.202;2023-06-22T03:27:39;33.13;;;10.43;;
3971;SDS011;2000;47.572;14.202;2023-06-22T03:30:07;21.17;;;10.10;;
3971;SDS011;2000;47.572;14.202;2023-06-22T03:32:35;18.17;;;9.77;;
3971;SDS011;2000;47.572;14.202;2023-06-22T03:35:02;20.30;;;11.20;;
3971;SDS011;2000;47.572;14.202;2023-06-22T03:37:29;23.13;;;11.57;;
3971;SDS011;2000;47.572;14.202;2023-06-22T03:39:56;19.33;;;10.43;;
3971;SDS011;2000;47.572;14.202;2023-06-22T03:42:22;16.50;;;9.07;;
3971;SDS011;2000;47.572;14.202;2023-06-22T03:44:49;21.27;;;8.57;;
3971;SDS011;2000;47.572;14.202;2023-06-22T03:47:16;18.70;;;10.10;;
3971;SDS011;2000;47.572;14.202;2023-06-22T03:49:43;28.53;;;11.33;;
3971;SDS011;2000;47.572;14.202;2023-06-22T03:52:10;20.07;;;10.33;;
3971;SDS011;2000;47.572;14.202;2023-06-22T03:54:37;19.67;;;8.80;;
3971;SDS011;2000;47.572;14.202;2023-06-22T03:57:04;30.90;;;9.40;;
3971;SDS011;2000;47.572;14.202;2023-06-22T03:59:32;15.13;;;7.97;;
3971;SDS011;2000;47.572;14.202;2023-06-22T04:01:59;17.93;;;9.20;;
3971;SDS011;2000;47.572;14.202;2023-06-22T04:04:26;14.43;;;8.40;;
3971;SDS011;2000;47.572;14.202;2023-06-22T04:06:53;16.57;;;9.63;;
3971;SDS011;2000;47.572;14.202;2023-06-22T04:09:19;17.23;;;8.93;;
3971;SDS011;2000;47.572;14.202;2023-06-22T04:11:48;15.37;;;9.60;;
3971;SDS011;2000;47.572;14.202;2023-06-22T04:14:14;14.37;;;7.87;;
3971;SDS011;2000;47.572;14.202;2023-06-22T04:16:41;15.33;;;8.33;;
3971;SDS011;2000;47.572;14.202;2023-06-22T04:19:08;15.50;;;8.97;;
3971;SDS011;2000;47.572;14.202;2023-06-22T04:21:40;17.83;;;8.80;;
3971;SDS011;2000;47.572;14.202;2023-06-22T04:24:07;20.03;;;9.77;;
3971;SDS011;2000;47.572;14.202;2023-06-22T04:26:34;23.23;;;8.87;;
3971;SDS011;2000;47.572;14.202;2023-06-22T04:29:03;21.57;;;8.93;;
3971;SDS011;2000;47.572;14.202;2023-06-22T04:31:32;22.23;;;8.50;;
3971;SDS011;2000;47.572;14.202;2023-06-22T04:34:03;39.63;;;18.50;;
3971;SDS011;2000;47.572;14.202;2023-06-22T04:36:34;19.57;;;11.30;;
3971;SDS011;2000;47.572;14.202;2023-06-22T04:39:08;16.70;;;8.63;;
3971;SDS011;2000;47.572;14.202;2023-06-22T04:41:39;22.17;;;8.83;;
3971;SDS011;2000;47.572;14.202;2023-06-22T04:44:16;12.00;;;6.60;;
3971;SDS011;2000;47.572;14.202;2023-06-22T04:46:51;13.60;;;9.20;;
3971;SDS011;2000;47.572;14.202;2023-06-22T04:49:26;8.07;;;6.50;;
3971;SDS011;2000;47.572;14.202;2023-06-22T04:52:05;10.60;;;7.07;;
3971;SDS011;2000;47.572;14.202;2023-06-22T04:54:33;11.23;;;7.20;;
3971;SDS011;2000;47.572;14.202;2023-06-22T04:57:01;13.17;;;6.83;;
3971;SDS011;2000;47.572;14.202;2023-06-22T04:59:29;13.63;;;6.70;;
3971;SDS011;2000;47.572;14.202;2023-06-22T05:02:00;14.10;;;8.83;;
3971;SDS011;2000;47.572;14.202;2023-06-22T05:04:29;18.53;;;9.10;;
3971;SDS011;2000;47.572;14.202;2023-06-22T05:06:58;14.97;;;8.07;;
3971;SDS011;2000;47.572;14.202;2023-06-22T05:09:26;23.47;;;8.43;;
3971;SDS011;2000;47.572;14.202;2023-06-22T05:11:53;14.03;;;8.27;;
3971;SDS011;2000;47.572;14.202;2023-06-22T05:14:20;11.03;;;7.73;;
3971;SDS011;2000;47.572;14.202;2023-06-22T05:16:48;12.93;;;7.20;;
3971;SDS011;2000;47.572;14.202;2023-06-22T05:19:15;13.90;;;8.80;;
3971;SDS011;2000;47.572;14.202;2023-06-22T05:21:42;12.67;;;7.70;;
3971;SDS011;2000;47.572;14.202;2023-06-22T05:24:09;16.47;;;7.13;;
3971;SDS011;2000;47.572;14.202;2023-06-22T05:26:36;12.70;;;7.90;;
3971;SDS011;2000;47.572;14.202;2023-06-22T05:29:03;10.77;;;6.77;;
3971;SDS011;2000;47.572;14.202;2023-06-22T05:31:30;10.10;;;7.60;;
3971;SDS011;2000;47.572;14.202;2023-06-22T05:33:57;15.07;;;7.23;;
3971;SDS011;2000;47.572;14.202;2023-06-22T05:36:24;22.67;;;8.93;;
3971;SDS011;2000;47.572;14.202;2023-06-22T05:38:56;19.53;;;9.73;;
3971;SDS011;2000;47.572;14.202;2023-06-22T05:41:23;13.87;;;9.93;;
3971;SDS011;2000;47.572;14.202;2023-06-22T05:43:50;15.43;;;9.77;;
3971;SDS011;2000;47.572;14.202;2023-06-22T05:46:17;16.17;;;9.13;;
3971;SDS011;2000;47.572;14.202;2023-06-22T05:48:45;18.33;;;10.77;;
3971;SDS011;2000;47.572;14.202;2023-06-22T05:51:12;21.87;;;9.50;;
3971;SDS011;2000;47.572;14.202;2023-06-22T05:53:38;19.37;;;10.60;;
3971;SDS011;2000;47.572;14.202;2023-06-22T05:56:05;24.77;;;11.17;;
3971;SDS011;2000;47.572;14.202;2023-06-22T05:58:32;17.70;;;11.30;;
3971;SDS011;2000;47.572;14.202;2023-06-22T06:00:59;24.33;;;10.90;;
3971;SDS011;2000;47.572;14.202;2023-06-22T06:03:27;23.63;;;12.80;;
3971;SDS011;2000;47.572;14.202;2023-06-22T06:05:55;25.13;;;12.50;;
3971;SDS011;2000;47.572;14.202;2023-06-22T06:08:22;29.93;;;14.80;;
3971;SDS011;2000;47.572;14.202;2023-06-22T06:10:49;18.67;;;10.97;;
3971;SDS011;2000;47.572;14.202;2023-06-22T06:13:16;18.50;;;12.47;;
3971;SDS011;2000;47.572;14.202;2023-06-22T06:15:42;21.83;;;14.13;;
3971;SDS011;2000;47.572;14.202;2023-06-22T06:18:09;24.53;;;13.10;;
3971;SDS011;2000;47.572;14.202;2023-06-22T06:20:36;24.43;;;12.27;;
3971;SDS011;2000;47.572;14.202;2023-06-22T06:23:03;33.87;;;13.00;;
3971;SDS011;2000;47.572;14.202;2023-06-22T06:25:30;38.07;;;15.10;;
3971;SDS011;2000;47.572;14.202;2023-06-22T06:27:57;24.97;;;14.23;;
3971;SDS011;2000;47.572;14.202;2023-06-22T06:30:23;24.30;;;14.70;;
3971;SDS011;2000;47.572;14.202;2023-06-22T06:32:50;31.60;;;14.77;;
3971;SDS011;2000;47.572;14.202;2023-06-22T06:35:17;24.00;;;15.47;;
3971;SDS011;2000;47.572;14.202;2023-06-22T06:37:45;31.73;;;16.40;;
3971;SDS011;2000;47.572;14.202;2023-06-22T06:40:14;35.50;;;15.37;;
3971;SDS011;2000;47.572;14.202;2023-06-22T06:42:45;28.90;;;13.70;;
3971;SDS011;2000;47.572;14.202;2023-06-22T06:45:23;25.13;;;14.60;;
3971;SDS011;2000;47.572;14.202;2023-06-22T06:47:51;37.10;;;15.37;;
3971;SDS011;2000;47.572;14.202;2023-06-22T06:50:18;33.90;;;16.27;;
3971;SDS011;2000;47.572;14.202;2023-06-22T06:52:45;32.70;;;16.03;;
3971;SDS011;2000;47.572;14.202;2023-06-22T06:55:12;26.40;;;15.30;;
3971;SDS011;2000;47.572;14.202;2023-06-22T06:57:40;26.20;;;13.70;;
3971;SDS011;2000;47.572;14.202;2023-06-22T07:00:09;27.10;;;15.37;;
3971;SDS011;2000;47.572;14.202;2023-06-22T07:02:40;33.20;;;15.60;;
3971;SDS011;2000;47.572;14.202;2023-06-22T07:05:08;32.33;;;16.73;;
3971;SDS011;2000;47.572;14.202;2023-06-22T07:07:36;39.07;;;15.70;;
3971;SDS011;2000;47.572;14.202;2023-06-22T07:10:04;35.47;;;16.33;;
3971;SDS011;2000;47.572;14.202;2023-06-22T07:12:32;29.10;;;15.80;;
3971;SDS011;2000;47.572;14.202;2023-06-22T07:15:03;30.87;;;16.40;;
3971;SDS011;2000;47.572;14.202;2023-06-22T07:17:31;29.63;;;16.77;;
3971;SDS011;2000;47.572;14.202;2023-06-22T07:19:58;28.07;;;17.03;;
3971;SDS011;2000;47.572;14.202;2023-06-22T07:22:25;36.37;;;18.00;;
3971;SDS011;2000;47.572;14.202;2023-06-22T07:24:52;30.13;;;16.13;;
3971;SDS011;2000;47.572;14.202;2023-06-22T07:27:19;29.80;;;18.00;;
3971;SDS011;2000;47.572;14.202;2023-06-22T07:29:46;43.97;;;15.67;;
3971;SDS011;2000;47.572;14.202;2023-06-22T07:32:13;43.60;;;15.90;;
3971;SDS011;2000;47.572;14.202;2023-06-22T07:34:40;30.77;;;15.70;;
3971;SDS011;2000;47.572;14.202;2023-06-22T07:37:07;34.33;;;15.70;;
3971;SDS011;2000;47.572;14.202;2023-06-22T07:39:34;29.40;;;16.30;;
3971;SDS011;2000;47.572;14.202;2023-06-22T07:42:01;34.07;;;17.67;;
3971;SDS011;2000;47.572;14.202;2023-06-22T07:44:28;42.63;;;17.97;;
3971;SDS011;2000;47.572;14.202;2023-06-22T07:46:55;41.50;;;18.30;;
3971;SDS011;2000;47.572;14.202;2023-06-22T07:49:22;43.40;;;19.70;;
3971;SDS011;2000;47.572;14.202;2023-06-22T07:51:48;41.07;;;16.60;;
3971;SDS011;2000;47.572;14.202;2023-06-22T07:54:15;39.37;;;16.93;;
3971;SDS011;2000;47.572;14.202;2023-06-22T07:56:43;38.00;;;16.53;;
3971;SDS011;2000;47.572;14.202;2023-06-22T07:59:10;41.47;;;15.30;;
3971;SDS011;2000;47.572;14.202;2023-06-22T08:01:37;28.23;;;16.93;;
3971;SDS011;2000;47.572;14.202;2023-06-22T08:04:03;45.23;;;17.90;;
3971;SDS011;2000;47.572;14.202;2023-06-22T08:06:32;44.63;;;18.03;;
3971;SDS011;2000;47.572;14.202;2023-06-22T08:08:59;34.57;;;16.00;;
3971;SDS011;2000;47.572;14.202;2023-06-22T08:11:26;42.17;;;14.70;;
3971;SDS011;2000;47.572;14.202;2023-06-22T08:13:53;40.17;;;14.60;;
3971;SDS011;2000;47.572;14.202;2023-06-22T08:16:22;33.60;;;14.17;;
3971;SDS011;2000;47.572;14.202;2023-06-22T08:18:48;27.47;;;14.00;;
3971;SDS011;2000;47.572;14.202;2023-06-22T08:21:15;24.00;;;14.80;;
3971;SDS011;2000;47.572;14.202;2023-06-22T08:23:43;32.00;;;15.73;;
3971;SDS011;2000;47.572;14.202;2023-06-22T08:26:10;38.00;;;16.73;;
3971;SDS011;2000;47.572;14.202;2023-06-22T08:28:37;24.77;;;14.83;;
3971;SDS011;2000;47.572;14.202;2023-06-22T08:31:03;32.00;;;15.30;;
3971;SDS011;2000;47.572;14.202;2023-06-22T08:33:30;27.43;;;15.03;;
3971;SDS011;2000;47.572;14.202;2023-06-22T08:35:58;38.07;;;15.40;;
3971;SDS011;2000;47.572;14.202;2023-06-22T08:38:25;29.50;;;13.80;;
3971;SDS011;2000;47.572;14.202;2023-06-22T08:40:52;32.77;;;14.53;;
3971;SDS011;2000;47.572;14.202;2023-06-22T08:43:19;33.53;;;16.53;;
3971;SDS011;2000;47.572;14.202;2023-06-22T08:45:46;24.67;;;15.47;;
3971;SDS011;2000;47.572;14.202;2023-06-22T08:48:13;40.20;;;16.67;;
3971;SDS011;2000;47.572;14.202;2023-06-22T08:50:40;26.67;;;15.13;;
3971;SDS011;2000;47.572;14.202;2023-06-22T08:53:07;31.57;;;17.00;;
3971;SDS011;2000;47.572;14.202;2023-06-22T08:55:34;37.73;;;15.93;;
3971;SDS011;2000;47.572;14.202;2023-06-22T08:58:00;32.47;;;15.30;;
3971;SDS011;2000;47.572;14.202;2023-06-22T09:00:27;38.93;;;14.60;;
3971;SDS011;2000;47.572;14.202;2023-06-22T09:02:55;25.00;;;13.77;;
3971;SDS011;2000;47.572;14.202;2023-06-22T09:05:25;28.93;;;14.20;;
3971;SDS011;2000;47.572;14.202;2023-06-22T09:07:53;30.97;;;15.97;;
3971;SDS011;2000;47.572;14.202;2023-06-22T09:10:23;35.73;;;15.37;;
3971;SDS011;2000;47.572;14.202;2023-06-22T09:12:49;48.40;;;18.37;;
3971;SDS011;2000;47.572;14.202;2023-06-22T09:15:16;28.57;;;16.03;;
3971;SDS011;2000;47.572;14.202;2023-06-22T09:17:44;36.70;;;16.70;;
3971;SDS011;2000;47.572;14.202;2023-06-22T09:20:13;43.60;;;17.33;;
3971;SDS011;2000;47.572;14.202;2023-06-22T09:22:40;34.07;;;17.10;;
3971;SDS011;2000;47.572;14.202;2023-06-22T09:25:07;33.67;;;16.03;;
3971;SDS011;2000;47.572;14.202;2023-06-22T09:27:34;36.97;;;17.87;;
3971;SDS011;2000;47.572;14.202;2023-06-22T09:30:01;40.80;;;15.50;;
3971;SDS011;2000;47.572;14.202;2023-06-22T09:32:29;35.07;;;15.50;;
3971;SDS011;2000;47.572;14.202;2023-06-22T09:34:56;34.37;;;16.40;;
3971;SDS011;2000;47.572;14.202;2023-06-22T09:37:23;30.27;;;14.40;;
3971;SDS011;2000;47.572;14.202;2023-06-22T09:39:50;23.73;;;14.30;;
3971;SDS011;2000;47.572;14.202;2023-06-22T09:42:17;28.07;;;15.07;;
3971;SDS011;2000;47.572;14.202;2023-06-22T09:44:44;30.93;;;14.60;;
3971;SDS011;2000;47.572;14.202;2023-06-22T09:47:11;34.73;;;14.87;;
3971;SDS011;2000;47.572;14.202;2023-06-22T09:49:37;26.30;;;15.63;;
3971;SDS011;2000;47.572;14.202;2023-06-22T09:52:13;22.33;;;13.10;;
3971;SDS011;2000;47.572;14.202;2023-06-22T09:54:40;24.17;;;12.57;;
3971;SDS011;2000;47.572;14.202;2023-06-22T09:57:07;27.27;;;14.10;;
3971;SDS011;2000;47.572;14.202;2023-06-22T09:59:34;29.67;;;12.97;;
3971;SDS011;2000;47.572;14.202;2023-06-22T10:02:01;20.63;;;12.13;;
3971;SDS011;2000;47.572;14.202;2023-06-22T10:04:28;24.27;;;13.73;;
3971;SDS011;2000;47.572;14.202;2023-06-22T10:06:56;21.47;;;13.30;;
3971;SDS011;2000;47.572;14.202;2023-06-22T10:09:23;23.10;;;12.77;;
3971;SDS011;2000;47.572;14.202;2023-06-22T10:11:49;17.30;;;12.00;;
3971;SDS011;2000;47.572;14.202;2023-06-22T10:14:16;19.53;;;11.90;;
3971;SDS011;2000;47.572;14.202;2023-06-22T10:16:43;21.17;;;12.90;;
3971;SDS011;2000;47.572;14.202;2023-06-22T10:19:10;25.33;;;11.60;;
3971;SDS011;2000;47.572;14.202;2023-06-22T10:21:37;27.77;;;12.43;;
3971;SDS011;2000;47.572;14.202;2023-06-22T10:24:04;20.27;;;10.97;;
3971;SDS011;2000;47.572;14.202;2023-06-22T10:26:35;26.73;;;10.87;;
3971;SDS011;2000;47.572;14.202;2023-06-22T10:29:03;25.00;;;11.67;;
3971;SDS011;2000;47.572;14.202;2023-06-22T10:31:42;23.00;;;10.53;;
3971;SDS011;2000;47.572;14.202;2023-06-22T10:34:09;23.60;;;12.00;;
3971;SDS011;2000;47.572;14.202;2023-06-22T10:36:36;33.73;;;11.83;;
3971;SDS011;2000;47.572;14.202;2023-06-22T10:39:03;23.17;;;10.90;;
3971;SDS011;2000;47.572;14.202;2023-06-22T10:41:30;25.77;;;11.37;;
3971;SDS011;2000;47.572;14.202;2023-06-22T10:43:57;16.63;;;10.60;;
3971;SDS011;2000;47.572;14.202;2023-06-22T10:46:24;24.53;;;10.60;;
3971;SDS011;2000;47.572;14.202;2023-06-22T10:48:52;19.47;;;11.90;;
3971;SDS011;2000;47.572;14.202;2023-06-22T10:51:21;33.87;;;12.40;;
3971;SDS011;2000;47.572;14.202;2023-06-22T10:53:48;23.63;;;11.30;;
3971;SDS011;2000;47.572;14.202;2023-06-22T10:56:15;19.87;;;12.67;;
3971;SDS011;2000;47.572;14.202;2023-06-22T10:58:44;23.13;;;10.57;;
3971;SDS011;2000;47.572;14.202;2023-06-22T11:01:11;20.57;;;11.47;;
3971;SDS011;2000;47.572;14.202;2023-06-22T11:03:58;22.83;;;12.03;;
3971;SDS011;2000;47.572;14.202;2023-06-22T11:06:25;23.63;;;10.20;;
3971;SDS011;2000;47.572;14.202;2023-06-22T11:08:52;23.50;;;12.07;;
3971;SDS011;2000;47.572;14.202;2023-06-22T11:11:32;21.53;;;11.03;;
3971;SDS011;2000;47.572;14.202;2023-06-22T11:13:59;17.13;;;11.23;;
3971;SDS011;2000;47.572;14.202;2023-06-22T11:16:26;22.03;;;10.33;;
3971;SDS011;2000;47.572;14.202;2023-06-22T11:18:53;28.67;;;12.23;;
3971;SDS011;2000;47.572;14.202;2023-06-22T11:21:20;15.73;;;11.00;;
3971;SDS011;2000;47.572;14.202;2023-06-22T11:23:47;22.20;;;12.50;;
3971;SDS011;2000;47.572;14.202;2023-06-22T11:26:15;17.37;;;10.57;;
3971;SDS011;2000;47.572;14.202;2023-06-22T11:28:41;29.70;;;11.77;;
3971;SDS011;2000;47.572;14.202;2023-06-22T11:31:08;23.60;;;11.63;;
3971;SDS011;2000;47.572;14.202;2023-06-22T11:33:51;22.43;;;12.37;;
3971;SDS011;2000;47.572;14.202;2023-06-22T11:36:18;21.63;;;10.87;;
3971;SDS011;2000;47.572;14.202;2023-06-22T11:38:45;19.50;;;10.17;;
3971;SDS011;2000;47.572;14.202;2023-06-22T11:41:12;23.90;;;10.77;;
3971;SDS011;2000;47.572;14.202;2023-06-22T11:43:39;25.30;;;12.67;;
3971;SDS011;2000;47.572;14.202;2023-06-22T11:46:05;15.33;;;11.00;;
3971;SDS011;2000;47.572;14.202;2023-06-22T11:48:32;26.00;;;13.40;;
3971;SDS011;2000;47.572;14.202;2023-06-22T11:50:59;20.70;;;11.03;;
3971;SDS011;2000;47.572;14.202;2023-06-22T11:53:27;20.63;;;11.53;;
3971;SDS011;2000;47.572;14.202;2023-06-22T11:55:54;26.33;;;11.40;;
3971;SDS011;2000;47.572;14.202;2023-06-22T11:58:22;23.23;;;10.97;;
3971;SDS011;2000;47.572;14.202;2023-06-22T12:00:49;18.57;;;10.70;;
3971;SDS011;2000;47.572;14.202;2023-06-22T12:03:18;26.30;;;12.17;;
3971;SDS011;2000;47.572;14.202;2023-06-22T12:05:46;19.40;;;12.30;;
3971;SDS011;2000;47.572;14.202;2023-06-22T12:08:13;19.57;;;10.87;;
3971;SDS011;2000;47.572;14.202;2023-06-22T12:10:40;21.23;;;11.00;;
3971;SDS011;2000;47.572;14.202;2023-06-22T12:13:07;21.40;;;11.50;;
3971;SDS011;2000;47.572;14.202;2023-06-22T12:15:34;19.57;;;12.33;;
3971;SDS011;2000;47.572;14.202;2023-06-22T12:18:01;21.40;;;11.87;;
3971;SDS011;2000;47.572;14.202;2023-06-22T12:20:28;24.27;;;11.23;;
3971;SDS011;2000;47.572;14.202;2023-06-22T12:22:55;23.00;;;11.73;;
3971;SDS011;2000;47.572;14.202;2023-06-22T12:25:24;21.50;;;11.23;;
3971;SDS011;2000;47.572;14.202;2023-06-22T12:27:51;26.03;;;11.90;;
3971;SDS011;2000;47.572;14.202;2023-06-22T12:30:18;23.80;;;12.73;;
3971;SDS011;2000;47.572;14.202;2023-06-22T12:32:45;31.90;;;12.30;;
3971;SDS011;2000;47.572;14.202;2023-06-22T12:35:12;29.27;;;10.83;;
3971;SDS011;2000;47.572;14.202;2023-06-22T12:37:41;24.47;;;10.43;;
3971;SDS011;2000;47.572;14.202;2023-06-22T12:40:09;27.33;;;10.83;;
3971;SDS011;2000;47.572;14.202;2023-06-22T12:42:36;26.20;;;10.80;;
3971;SDS011;2000;47.572;14.202;2023-06-22T12:45:03;20.00;;;10.47;;
3971;SDS011;2000;47.572;14.202;2023-06-22T12:47:32;20.43;;;10.80;;
3971;SDS011;2000;47.572;14.202;2023-06-22T12:49:59;22.83;;;10.03;;
3971;SDS011;2000;47.572;14.202;2023-06-22T12:52:26;19.97;;;11.13;;
3971;SDS011;2000;47.572;14.202;2023-06-22T12:54:53;21.93;;;10.77;;
3971;SDS011;2000;47.572;14.202;2023-06-22T12:57:21;20.60;;;11.77;;
3971;SDS011;2000;47.572;14.202;2023-06-22T12:59:48;16.10;;;10.40;;
3971;SDS011;2000;47.572;14.202;2023-06-22T13:02:15;15.83;;;10.07;;
3971;SDS011;2000;47.572;14.202;2023-06-22T13:04:42;24.73;;;10.63;;
3971;SDS011;2000;47.572;14.202;2023-06-22T13:07:09;16.90;;;9.40;;
3971;SDS011;2000;47.572;14.202;2023-06-22T13:09:48;21.83;;;10.40;;
3971;SDS011;2000;47.572;14.202;2023-06-22T13:12:19;19.30;;;11.10;;
3971;SDS011;2000;47.572;14.202;2023-06-22T13:14:47;29.00;;;10.20;;
3971;SDS011;2000;47.572;14.202;2023-06-22T13:17:14;17.30;;;9.67;;
3971;SDS011;2000;47.572;14.202;2023-06-22T13:19:41;19.30;;;10.17;;
3971;SDS011;2000;47.572;14.202;2023-06-22T13:24:55;21.63;;;10.30;;
3971;SDS011;2000;47.572;14.202;2023-06-22T13:27:23;25.10;;;10.47;;
3971;SDS011;2000;47.572;14.202;2023-06-22T13:29:50;21.40;;;11.33;;
3971;SDS011;2000;47.572;14.202;2023-06-22T13:32:17;29.57;;;11.27;;
3971;SDS011;2000;47.572;14.202;2023-06-22T13:34:44;28.83;;;11.57;;
3971;SDS011;2000;47.572;14.202;2023-06-22T13:37:11;22.73;;;10.50;;
3971;SDS011;2000;47.572;14.202;2023-06-22T13:39:37;21.50;;;10.07;;
3971;SDS011;2000;47.572;14.202;2023-06-22T13:42:05;25.13;;;11.33;;
3971;SDS011;2000;47.572;14.202;2023-06-22T13:44:32;19.20;;;11.10;;
3971;SDS011;2000;47.572;14.202;2023-06-22T13:46:59;36.60;;;11.40;;
3971;SDS011;2000;47.572;14.202;2023-06-22T13:49:26;18.50;;;9.83;;
3971;SDS011;2000;47.572;14.202;2023-06-22T13:51:53;21.83;;;10.73;;
3971;SDS011;2000;47.572;14.202;2023-06-22T13:54:20;24.10;;;10.77;;
3971;SDS011;2000;47.572;14.202;2023-06-22T13:56:55;23.70;;;12.27;;
3971;SDS011;2000;47.572;14.202;2023-06-22T13:59:22;17.80;;;10.53;;
3971;SDS011;2000;47.572;14.202;2023-06-22T14:01:50;30.23;;;11.93;;
3971;SDS011;2000;47.572;14.202;2023-06-22T14:04:17;28.50;;;10.23;;
3971;SDS011;2000;47.572;14.202;2023-06-22T14:06:44;23.07;;;10.27;;
3971;SDS011;2000;47.572;14.202;2023-06-22T14:09:10;25.93;;;9.17;;
3971;SDS011;2000;47.572;14.202;2023-06-22T14:11:37;23.97;;;9.93;;
3971;SDS011;2000;47.572;14.202;2023-06-22T14:14:04;17.47;;;10.00;;
3971;SDS011;2000;47.572;14.202;2023-06-22T14:16:31;20.17;;;10.50;;
3971;SDS011;2000;47.572;14.202;2023-06-22T14:18:58;27.30;;;11.20;;
3971;SDS011;2000;47.572;14.202;2023-06-22T14:21:25;40.87;;;10.40;;
3971;SDS011;2000;47.572;14.202;2023-06-22T14:23:52;28.70;;;10.40;;
3971;SDS011;2000;47.572;14.202;2023-06-22T14:26:19;25.27;;;10.23;;
3971;SDS011;2000;47.572;14.202;2023-06-22T14:28:46;15.87;;;10.20;;
3971;SDS011;2000;47.572;14.202;2023-06-22T14:31:15;18.67;;;10.20;;
3971;SDS011;2000;47.572;14.202;2023-06-22T14:33:45;23.60;;;11.07;;
3971;SDS011;2000;47.572;14.202;2023-06-22T14:36:14;21.53;;;10.00;;
3971;SDS011;2000;47.572;14.202;2023-06-22T14:38:41;28.33;;;11.23;;
3971;SDS011;2000;47.572;14.202;2023-06-22T14:41:08;26.03;;;9.87;;
3971;SDS011;2000;47.572;14.202;2023-06-22T14:43:38;21.73;;;10.20;;
3971;SDS011;2000;47.572;14.202;2023-06-22T14:46:05;26.13;;;11.20;;
3971;SDS011;2000;47.572;14.202;2023-06-22T14:48:32;32.33;;;12.47;;